Time;durP1;ratioP1;P1;durP2;ratioP2;P2;SDS_P1;SDS_P2;PMS_P1;PMS_P2;Temp;Humidity;BMP_temperature;BMP_pressure;BME280_temperature;BME280_humidity;BME280_pressure;Samples;Min_cycle;Max_cycle;Signal;HPM_P1;HPM_P2
2024/03/22 00:01:52;;;;;;;14.13;7.82;;;;;;;0.76;48.95;100433.94;5059170;28;20065;-72
2024/03/22 00:04:18;;;;;;;17.98;8.70;;;;;;;0.62;48.75;100425.69;5059019;28;20040;-71
2024/03/22 00:06:47;;;;;;;26.52;8.77;;;;;;;0.45;48.72;100396.78;5050899;28;20044;-71
2024/03/22 00:09:14;;;;;;;15.73;7.72;;;;;;;0.60;48.85;100427.28;5035421;28;20097;-70
2024/03/22 00:11:41;;;;;;;17.35;7.93;;;;;;;0.57;49.43;100420.34;5060283;28;20051;-71
2024/03/22 00:14:08;;;;;;;17.73;7.78;;;;;;;0.31;49.17;100392.78;5056043;28;20044;-70
2024/03/22 00:16:34;;;;;;;14.98;8.10;;;;;;;0.43;48.63;100406.97;5057792;28;20050;-73
2024/03/22 00:19:01;;;;;;;14.60;8.48;;;;;;;0.43;49.74;100406.09;5047666;28;20206;-73
2024/03/22 00:21:29;;;;;;;22.02;8.60;;;;;;;0.41;49.21;100400.03;5059682;28;20089;-71
2024/03/22 00:23:55;;;;;;;20.05;9.55;;;;;;;0.27;49.44;100386.63;5039313;28;20057;-73
2024/03/22 00:26:21;;;;;;;19.83;8.57;;;;;;;0.19;49.13;100388.03;5067204;28;20040;-71
2024/03/22 00:28:48;;;;;;;24.10;9.27;;;;;;;0.51;49.95;100420.09;5071921;28;20071;-73
2024/03/22 00:31:15;;;;;;;19.75;9.40;;;;;;;0.54;48.92;100427.94;5044317;28;20566;-73
2024/03/22 00:33:41;;;;;;;19.38;9.98;;;;;;;0.48;49.45;100419.97;5067548;28;20053;-71
2024/03/22 00:36:08;;;;;;;20.27;9.30;;;;;;;0.33;49.62;100383.50;5045244;28;20506;-71
2024/03/22 00:38:34;;;;;;;21.48;9.25;;;;;;;0.42;49.18;100412.03;5046118;28;20098;-73
2024/03/22 00:41:00;;;;;;;20.58;9.82;;;;;;;0.45;49.54;100409.59;5045205;28;20127;-69
2024/03/22 00:43:29;;;;;;;20.42;9.25;;;;;;;0.37;49.48;100405.81;5056493;28;20043;-74
2024/03/22 00:45:55;;;;;;;15.75;9.00;;;;;;;0.25;49.79;100399.41;5026482;28;20039;-72
2024/03/22 00:48:22;;;;;;;15.63;9.57;;;;;;;-0.04;48.67;100381.09;5044799;28;20032;-74
2024/03/22 00:50:48;;;;;;;20.20;10.38;;;;;;;0.16;49.97;100422.03;5046230;28;20042;-73
2024/03/22 00:53:14;;;;;;;17.95;9.57;;;;;;;0.13;50.41;100415.09;5040393;28;20036;-73
2024/03/22 00:55:40;;;;;;;21.77;9.75;;;;;;;-0.07;50.45;100373.28;5062645;28;20139;-73
2024/03/22 00:58:06;;;;;;;20.92;9.80;;;;;;;0.31;50.67;100426.06;5078953;28;20044;-72
2024/03/22 01:00:32;;;;;;;22.00;10.15;;;;;;;-0.17;50.59;100348.13;5037267;28;20498;-71
2024/03/22 01:02:58;;;;;;;20.92;10.02;;;;;;;0.16;49.95;100403.25;5054777;28;20081;-72
2024/03/22 01:05:25;;;;;;;21.80;10.57;;;;;;;0.25;50.08;100430.13;5054510;28;20093;-73
2024/03/22 01:07:51;;;;;;;23.45;10.57;;;;;;;0.00;50.46;100387.25;5061512;28;20036;-72
2024/03/22 01:10:18;;;;;;;22.65;10.15;;;;;;;-0.17;50.28;100359.22;5045939;28;20525;-73
2024/03/22 01:12:44;;;;;;;21.00;10.38;;;;;;;0.24;49.99;100423.25;5048710;28;20043;-73
2024/03/22 01:15:10;;;;;;;22.80;11.25;;;;;;;-0.16;50.36;100363.53;5043535;28;20043;-71
2024/03/22 01:17:39;;;;;;;19.73;10.30;;;;;;;0.16;50.06;100422.03;5063324;28;20040;-73
2024/03/22 01:20:07;;;;;;;26.95;10.40;;;;;;;0.10;50.37;100414.09;5044705;28;20429;-71
2024/03/22 01:22:34;;;;;;;26.13;10.50;;;;;;;-0.08;50.33;100384.31;5049595;28;20040;-72
2024/03/22 01:25:00;;;;;;;17.10;9.32;;;;;;;-0.25;50.26;100359.69;5061128;28;20119;-72
2024/03/22 01:27:29;;;;;;;19.73;9.65;;;;;;;0.05;51.25;100410.47;5048555;28;20123;-74
2024/03/22 01:29:56;;;;;;;23.00;10.35;;;;;;;-0.05;50.91;100404.94;5059110;28;20040;-73
2024/03/22 01:32:22;;;;;;;23.23;11.35;;;;;;;-0.10;50.51;100388.50;5045821;28;20048;-72
2024/03/22 01:34:48;;;;;;;23.38;11.32;;;;;;;-0.06;51.06;100403.19;5051350;28;20039;-72
2024/03/22 01:37:14;;;;;;;21.45;10.77;;;;;;;-0.08;50.88;100394.56;5052042;28;20059;-74
2024/03/22 01:39:40;;;;;;;18.63;11.15;;;;;;;-0.21;50.88;100388.03;5061243;28;20040;-73
2024/03/22 01:42:06;;;;;;;23.10;10.85;;;;;;;-0.12;51.27;100402.94;5054511;28;20429;-73
2024/03/22 01:44:33;;;;;;;22.00;11.60;;;;;;;-0.53;50.67;100332.88;5046517;28;20044;-73
2024/03/22 01:46:59;;;;;;;19.08;10.43;;;;;;;-0.15;51.05;100400.22;5048839;28;20046;-74
2024/03/22 01:49:26;;;;;;;23.05;11.77;;;;;;;-0.26;51.40;100386.06;5060863;28;20066;-73
2024/03/22 01:51:53;;;;;;;24.65;11.52;;;;;;;-0.22;51.48;100393.09;5060539;28;20040;-72
2024/03/22 01:54:20;;;;;;;22.50;11.65;;;;;;;-0.37;51.36;100362.56;5050208;28;20047;-74
2024/03/22 01:56:47;;;;;;;24.15;10.77;;;;;;;-0.47;50.63;100361.28;5059772;28;20082;-74
2024/03/22 01:59:15;;;;;;;21.27;10.95;;;;;;;-0.44;51.48;100365.69;5050380;28;20119;-72
2024/03/22 02:01:41;;;;;;;24.42;11.80;;;;;;;-0.30;51.31;100377.41;5049006;28;20040;-75
2024/03/22 02:04:08;;;;;;;26.30;12.00;;;;;;;-1.09;51.00;100264.81;5048210;28;20036;-72
2024/03/22 02:06:34;;;;;;;26.23;11.95;;;;;;;-0.56;51.24;100348.13;5032713;28;20510;-72
2024/03/22 02:09:01;;;;;;;25.55;12.73;;;;;;;-0.64;51.25;100340.97;5053609;28;20041;-72
2024/03/22 02:11:29;;;;;;;25.48;12.00;;;;;;;-0.84;51.90;100305.97;5062056;28;20059;-72
2024/03/22 02:13:55;;;;;;;24.58;13.05;;;;;;;-0.76;51.64;100313.16;5044326;28;20032;-74
2024/03/22 02:16:24;;;;;;;24.65;11.68;;;;;;;-0.42;51.77;100359.81;5062630;28;20484;-72
2024/03/22 02:18:50;;;;;;;25.30;12.55;;;;;;;-0.51;51.93;100351.72;5077204;28;20131;-73
2024/03/22 02:21:16;;;;;;;26.08;12.63;;;;;;;-0.71;51.95;100325.28;5030350;28;20040;-71
2024/03/22 02:23:42;;;;;;;23.98;12.32;;;;;;;-0.49;51.90;100376.59;5049572;28;20105;-72
2024/03/22 02:26:11;;;;;;;25.38;12.93;;;;;;;-0.45;51.94;100380.13;5078258;28;20040;-72
2024/03/22 02:28:38;;;;;;;23.88;12.55;;;;;;;-0.50;52.04;100372.28;5043938;28;20043;-72
2024/03/22 02:31:04;;;;;;;27.05;13.60;;;;;;;-0.52;51.54;100373.00;5060825;28;20062;-72
2024/03/22 02:33:31;;;;;;;26.55;12.07;;;;;;;-0.60;51.56;100359.88;5043646;28;20036;-73
2024/03/22 02:35:57;;;;;;;29.23;13.00;;;;;;;-0.54;52.55;100372.03;5058901;28;20139;-74
2024/03/22 02:38:26;;;;;;;31.92;13.85;;;;;;;-0.53;51.82;100364.47;5056119;28;20147;-70
2024/03/22 02:40:53;;;;;;;26.75;12.80;;;;;;;-0.55;52.25;100355.84;5050965;28;20036;-70
2024/03/22 02:43:21;;;;;;;26.98;13.25;;;;;;;-0.80;51.92;100320.63;5053968;28;20462;-70
2024/03/22 02:45:48;;;;;;;24.23;13.27;;;;;;;-0.77;52.35;100328.41;5026473;28;20037;-72
2024/03/22 02:48:15;;;;;;;20.15;12.27;;;;;;;-0.61;52.47;100356.44;5055749;28;20037;-72
2024/03/22 02:50:41;;;;;;;23.70;12.65;;;;;;;-0.70;52.17;100343.25;5055251;28;20096;-73
2024/03/22 02:53:08;;;;;;;26.90;12.45;;;;;;;-0.52;52.50;100357.66;5054398;28;20033;-70
2024/03/22 02:55:41;;;;;;;24.92;12.27;;;;;;;-0.53;52.11;100343.13;5055072;28;20099;-70
2024/03/22 02:58:08;;;;;;;29.27;13.45;;;;;;;-0.76;52.39;100307.16;5055353;28;20073;-72
2024/03/22 03:00:38;;;;;;;30.15;13.90;;;;;;;-0.44;52.61;100351.22;5041303;28;20123;-71
2024/03/22 03:03:07;;;;;;;25.35;13.35;;;;;;;-0.72;52.70;100296.28;5039730;28;20391;-70
2024/03/22 03:05:34;;;;;;;24.23;13.20;;;;;;;-0.79;52.78;100278.94;5040929;28;20072;-70
2024/03/22 03:08:04;;;;;;;28.00;13.15;;;;;;;-0.70;52.23;100297.22;5049069;28;20036;-70
2024/03/22 03:10:34;;;;;;;21.45;13.05;;;;;;;-0.41;52.53;100336.00;5038755;28;20044;-69
2024/03/22 03:13:00;;;;;;;27.00;13.23;;;;;;;-0.41;52.26;100336.00;5028511;28;20060;-70
2024/03/22 03:15:26;;;;;;;24.35;13.82;;;;;;;-0.67;52.77;100299.91;5045378;28;20033;-72
2024/03/22 03:17:52;;;;;;;27.85;13.60;;;;;;;-0.46;52.17;100329.81;5041894;28;20036;-70
2024/03/22 03:20:18;;;;;;;29.58;14.00;;;;;;;-0.77;52.36;100288.41;5042302;28;20051;-71
2024/03/22 03:22:44;;;;;;;33.10;14.50;;;;;;;-0.58;52.41;100309.69;5053941;28;20044;-70
2024/03/22 03:25:10;;;;;;;23.58;14.38;;;;;;;-0.86;52.57;100265.00;5053831;28;20045;-72
2024/03/22 03:27:39;;;;;;;26.98;13.93;;;;;;;-0.63;52.13;100304.38;5046083;28;20048;-73
2024/03/22 03:30:06;;;;;;;28.52;15.13;;;;;;;-0.53;53.11;100328.66;5028925;28;20036;-70
2024/03/22 03:32:37;;;;;;;29.88;15.38;;;;;;;-0.52;52.89;100335.53;5043186;28;20036;-71
2024/03/22 03:35:05;;;;;;;29.60;14.82;;;;;;;-0.58;52.57;100319.91;5039305;28;20552;-70
2024/03/22 03:37:32;;;;;;;29.27;16.35;;;;;;;-0.52;52.98;100334.63;5057547;28;20041;-71
2024/03/22 03:39:58;;;;;;;31.65;15.57;;;;;;;-0.60;52.69;100316.41;5037165;28;20044;-70
2024/03/22 03:42:24;;;;;;;27.88;15.38;;;;;;;-0.55;52.82;100321.75;5055100;28;20101;-70
2024/03/22 03:44:50;;;;;;;26.75;15.00;;;;;;;-0.54;52.75;100306.47;5054948;28;20122;-69
2024/03/22 03:47:17;;;;;;;27.88;14.98;;;;;;;-0.44;53.66;100301.75;5044500;28;20041;-69
2024/03/22 03:49:45;;;;;;;31.58;15.32;;;;;;;-0.27;52.70;100315.25;5039953;28;20036;-70
2024/03/22 03:52:11;;;;;;;27.88;14.88;;;;;;;-0.28;52.83;100293.94;5045064;28;20037;-71
2024/03/22 03:54:38;;;;;;;32.63;15.88;;;;;;;-0.19;53.01;100293.44;5045448;28;20082;-70
2024/03/22 03:57:04;;;;;;;31.20;16.23;;;;;;;-0.04;53.12;100299.19;5039369;28;20510;-70
2024/03/22 03:59:30;;;;;;;37.40;17.65;;;;;;;-0.03;53.04;100293.28;5054670;28;20230;-72
2024/03/22 04:02:06;;;;;;;31.65;15.00;;;;;;;0.21;52.37;100301.94;5039392;28;20037;-72
2024/03/22 04:04:33;;;;;;;25.23;14.32;;;;;;;0.27;52.75;100294.47;5055938;28;20131;-72
2024/03/22 04:06:59;;;;;;;28.45;14.75;;;;;;;0.25;52.80;100255.13;5030201;28;20082;-72
2024/03/22 04:09:35;;;;;;;27.85;14.63;;;;;;;0.57;52.54;100273.47;5041732;28;20127;-71
2024/03/22 04:12:02;;;;;;;27.48;15.40;;;;;;;0.85;52.57;100272.84;5030193;28;20041;-73
2024/03/22 04:14:28;;;;;;;34.72;15.75;;;;;;;0.99;51.78;100242.63;5022308;28;20047;-74
2024/03/22 04:16:56;;;;;;;30.48;15.98;;;;;;;1.37;51.58;100254.19;5046131;28;20040;-69
2024/03/22 04:19:23;;;;;;;32.85;14.88;;;;;;;1.92;51.57;100302.34;5045428;28;20049;-72
2024/03/22 04:21:50;;;;;;;30.63;16.02;;;;;;;2.06;51.11;100281.38;5021258;28;20036;-71
2024/03/22 04:24:17;;;;;;;26.15;14.85;;;;;;;2.32;50.96;100297.63;5053386;28;20044;-73
2024/03/22 04:26:46;;;;;;;31.17;14.90;;;;;;;2.41;50.56;100282.53;5038809;28;20444;-72
2024/03/22 04:29:13;;;;;;;27.17;14.43;;;;;;;2.51;50.51;100257.16;5024428;28;20047;-71
2024/03/22 04:31:39;;;;;;;25.23;14.70;;;;;;;2.80;50.26;100290.56;5054662;28;20528;-70
2024/03/22 04:34:07;;;;;;;25.70;14.40;;;;;;;2.70;49.97;100245.72;5037762;28;20579;-72
2024/03/22 04:36:34;;;;;;;30.80;14.68;;;;;;;2.79;49.50;100261.44;5054499;28;20039;-70
2024/03/22 04:39:00;;;;;;;28.70;14.88;;;;;;;3.04;49.45;100275.00;5052251;28;20102;-72
2024/03/22 04:41:32;;;;;;;24.55;15.23;;;;;;;3.25;49.28;100264.44;5034953;28;20083;-70
2024/03/22 04:43:58;;;;;;;30.55;14.93;;;;;;;3.60;48.77;100255.97;5054087;28;20033;-72
2024/03/22 04:46:26;;;;;;;26.83;15.43;;;;;;;4.35;48.87;100279.31;5042290;28;20032;-75
2024/03/22 04:48:55;;;;;;;23.30;14.55;;;;;;;4.66;47.97;100241.38;5024143;28;20075;-76
2024/03/22 04:51:23;;;;;;;25.38;14.50;;;;;;;5.04;47.45;100256.78;5055026;28;20045;-72
2024/03/22 04:53:49;;;;;;;25.58;14.15;;;;;;;5.05;46.82;100237.91;5057090;28;20147;-70
2024/03/22 04:56:15;;;;;;;24.48;13.65;;;;;;;5.25;45.69;100222.84;5054078;28;20051;-74
2024/03/22 04:58:41;;;;;;;25.55;14.43;;;;;;;6.72;46.18;100270.09;5052297;28;20043;-72
2024/03/22 05:01:07;;;;;;;23.10;13.85;;;;;;;8.28;45.38;100227.75;5054057;28;20049;-73
2024/03/22 05:03:34;;;;;;;21.83;12.45;;;;;;;10.39;43.36;100262.25;5038244;28;20089;-70
2024/03/22 05:06:03;;;;;;;26.17;12.98;;;;;;;12.12;41.70;100256.34;5037083;28;20044;-72
2024/03/22 05:08:29;;;;;;;21.08;11.85;;;;;;;13.47;38.70;100244.47;5035339;28;20089;-72
2024/03/22 05:10:59;;;;;;;23.58;12.48;;;;;;;14.67;37.35;100238.19;5044149;28;20131;-71
2024/03/22 05:13:26;;;;;;;22.13;12.18;;;;;;;15.33;35.25;100200.19;5027642;28;20045;-75
2024/03/22 05:15:53;;;;;;;17.05;12.27;;;;;;;16.13;34.07;100188.72;5040450;28;20040;-72
2024/03/22 05:18:19;;;;;;;23.20;12.40;;;;;;;17.21;32.85;100218.19;5052207;28;20104;-73
2024/03/22 05:20:48;;;;;;;19.20;12.88;;;;;;;18.18;31.55;100220.41;5042382;28;20041;-74
2024/03/22 05:23:18;;;;;;;22.20;13.65;;;;;;;19.20;30.51;100226.50;5023537;28;20048;-73
2024/03/22 05:25:44;;;;;;;20.73;12.88;;;;;;;19.90;28.95;100189.47;5053963;28;20055;-72
2024/03/22 05:28:10;;;;;;;20.63;13.43;;;;;;;20.61;28.30;100173.22;5037511;28;20118;-72
2024/03/22 05:30:38;;;;;;;23.80;13.82;;;;;;;21.58;27.21;100206.72;5022695;28;20576;-74
2024/03/22 05:33:04;;;;;;;22.08;12.77;;;;;;;22.24;26.10;100183.19;5067319;28;20127;-71
2024/03/22 05:35:31;;;;;;;17.55;13.48;;;;;;;22.73;24.98;100177.13;5040853;28;20614;-70
2024/03/22 05:37:58;;;;;;;18.92;12.63;;;;;;;23.04;24.65;100171.94;5035379;28;20140;-73
2024/03/22 05:40:25;;;;;;;22.90;13.77;;;;;;;23.83;23.90;100175.50;5056455;28;20083;-73
2024/03/22 05:42:51;;;;;;;17.52;13.88;;;;;;;24.90;22.94;100201.91;5032961;28;20033;-71
2024/03/22 05:45:17;;;;;;;18.52;13.27;;;;;;;25.45;22.73;100191.38;5056580;28;20048;-72
2024/03/22 05:47:43;;;;;;;22.52;13.45;;;;;;;25.89;22.13;100202.72;5057066;28;20040;-73
2024/03/22 05:50:10;;;;;;;16.85;14.63;;;;;;;26.67;21.42;100179.66;5062746;28;20418;-71
2024/03/22 05:52:36;;;;;;;22.67;14.20;;;;;;;27.35;21.04;100169.47;5046730;28;20093;-72
2024/03/22 05:55:03;;;;;;;20.70;14.88;;;;;;;27.98;20.09;100176.44;5060362;28;20037;-74
2024/03/22 05:57:29;;;;;;;19.33;14.35;;;;;;;27.30;19.78;100176.97;5048168;28;20050;-72
2024/03/22 05:59:58;;;;;;;23.73;14.10;;;;;;;25.77;19.59;100156.41;5036984;28;20037;-73
2024/03/22 06:02:25;;;;;;;23.08;14.98;;;;;;;24.71;19.77;100148.13;5063052;28;20094;-74
2024/03/22 06:04:55;;;;;;;21.17;14.60;;;;;;;24.77;20.14;100148.59;5032560;28;20049;-71
2024/03/22 06:07:21;;;;;;;18.75;13.98;;;;;;;25.25;20.00;100156.22;5057952;28;20420;-82
2024/03/22 06:09:48;;;;;;;21.00;14.10;;;;;;;26.30;19.86;100160.91;5057200;28;20041;-81
2024/03/22 06:12:22;;;;;;;20.88;15.25;;;;;;;27.18;19.10;100167.19;5033531;28;20517;-78
2024/03/22 06:14:50;;;;;;;20.30;15.13;;;;;;;27.30;18.90;100134.22;5060617;28;20044;-76
2024/03/22 06:17:17;;;;;;;20.48;15.45;;;;;;;28.34;18.53;100171.09;5045782;28;20033;-74
2024/03/22 06:19:47;;;;;;;24.70;17.98;;;;;;;28.91;18.18;100165.75;5040241;28;20455;-72
2024/03/22 06:22:13;;;;;;;24.20;15.85;;;;;;;29.80;17.88;100170.97;5051153;28;20388;-84
2024/03/22 06:24:44;;;;;;;18.67;15.13;;;;;;;30.10;17.45;100139.06;5062065;28;20045;-73
2024/03/22 06:27:11;;;;;;;21.15;15.77;;;;;;;30.75;16.80;100152.25;5045769;28;20055;-74
2024/03/22 06:29:37;;;;;;;20.48;14.68;;;;;;;31.28;16.69;100144.88;5056998;28;20049;-78
2024/03/22 06:32:04;;;;;;;22.67;15.48;;;;;;;32.09;16.52;100166.09;5056341;28;20469;-76
2024/03/22 06:34:30;;;;;;;20.38;15.10;;;;;;;32.49;16.13;100166.84;5042830;28;20668;-78
2024/03/22 06:36:57;;;;;;;20.50;14.80;;;;;;;32.83;15.84;100119.66;5042895;28;20049;-78
2024/03/22 06:39:24;;;;;;;18.13;15.15;;;;;;;33.23;15.64;100153.44;5059649;28;20506;-75
2024/03/22 06:41:50;;;;;;;18.77;14.68;;;;;;;33.27;15.03;100154.81;5063784;28;20829;-82
2024/03/22 06:44:21;;;;;;;22.05;16.08;;;;;;;33.56;15.11;100134.91;5051379;28;20040;-76
2024/03/22 06:46:47;;;;;;;22.83;15.73;;;;;;;33.91;14.90;100135.03;5059136;28;20036;-74
2024/03/22 06:49:13;;;;;;;18.58;14.82;;;;;;;34.24;14.81;100144.19;5035922;28;20062;-76
2024/03/22 06:51:39;;;;;;;20.42;14.57;;;;;;;34.37;14.73;100141.06;5046094;28;20097;-70
2024/03/22 06:54:06;;;;;;;20.15;15.38;;;;;;;34.46;14.02;100112.25;5050012;28;20044;-69
2024/03/22 06:56:33;;;;;;;21.63;15.73;;;;;;;34.93;13.82;100139.78;5038972;28;20044;-69
2024/03/22 06:59:02;;;;;;;18.30;14.43;;;;;;;35.12;14.24;100127.84;5053360;28;20043;-70
2024/03/22 07:01:32;;;;;;;18.27;14.48;;;;;;;35.77;13.57;100142.44;5051166;28;20139;-69
2024/03/22 07:03:58;;;;;;;21.98;15.25;;;;;;;35.27;13.19;100131.59;5024451;28;20043;-69
2024/03/22 07:06:24;;;;;;;25.23;15.27;;;;;;;35.05;13.81;100124.97;5028104;28;20721;-70
2024/03/22 07:08:51;;;;;;;17.98;13.50;;;;;;;35.69;13.64;100137.06;5054361;28;20044;-68
2024/03/22 07:11:18;;;;;;;19.77;15.30;;;;;;;35.99;12.96;100129.25;5050412;28;20063;-69
2024/03/22 07:13:47;;;;;;;19.00;14.73;;;;;;;36.51;13.61;100106.28;5046960;28;20045;-69
2024/03/22 07:16:17;;;;;;;18.20;14.55;;;;;;;37.32;12.92;100107.84;5040384;28;20070;-69
2024/03/22 07:18:43;;;;;;;16.10;11.95;;;;;;;37.89;12.99;100102.94;5054086;28;20087;-68
2024/03/22 07:21:10;;;;;;;16.83;11.55;;;;;;;37.98;12.14;100120.88;5043152;28;20147;-68
2024/03/22 07:23:37;;;;;;;15.73;11.00;;;;;;;37.71;12.27;100089.75;5055433;28;20079;-69
2024/03/22 07:26:05;;;;;;;15.77;11.15;;;;;;;37.71;12.13;100106.84;5043936;28;20506;-69
2024/03/22 07:28:31;;;;;;;18.00;10.75;;;;;;;38.23;12.09;100088.00;5055510;28;20121;-71
2024/03/22 07:30:58;;;;;;;22.10;12.23;;;;;;;38.71;11.67;100104.72;5058554;28;20043;-71
2024/03/22 07:33:24;;;;;;;18.30;12.98;;;;;;;38.76;11.85;100100.56;5049890;28;20048;-70
2024/03/22 07:35:51;;;;;;;15.27;11.98;;;;;;;39.06;11.99;100076.03;5041486;28;20710;-72
2024/03/22 07:38:17;;;;;;;17.27;10.68;;;;;;;39.69;11.62;100102.53;5038996;28;20052;-71
2024/03/22 07:40:44;;;;;;;15.25;11.20;;;;;;;39.94;11.39;100102.97;5024287;28;20131;-71
2024/03/22 07:43:13;;;;;;;17.60;11.95;;;;;;;39.88;11.41;100088.25;5060051;28;20048;-68
2024/03/22 07:45:41;;;;;;;;;;;;;;;40.21;11.74;100094.97;5057666;28;20076;-70
2024/03/22 07:48:10;;;;;;;17.48;11.88;;;;;;;40.41;11.50;100062.38;5061912;28;19970;-70
2024/03/22 07:50:37;;;;;;;16.50;13.00;;;;;;;40.80;11.26;100084.53;5027517;28;20036;-71
2024/03/22 07:53:06;;;;;;;17.88;11.93;;;;;;;40.65;11.34;100079.25;5059069;28;20036;-78
2024/03/22 07:55:32;;;;;;;17.23;11.48;;;;;;;40.60;11.16;100054.44;5050550;28;20092;-71
2024/03/22 07:58:01;;;;;;;22.35;11.73;;;;;;;40.58;10.60;100068.31;5062920;28;20051;-71
2024/03/22 08:00:27;;;;;;;19.55;12.52;;;;;;;40.27;10.77;100077.00;5061180;28;20042;-69
2024/03/22 08:02:54;;;;;;;15.65;11.82;;;;;;;39.89;11.12;100054.53;5056263;28;20401;-70
2024/03/22 08:05:21;;;;;;;12.55;10.63;;;;;;;40.00;11.36;100060.47;5044995;28;20036;-72
2024/03/22 08:07:47;;;;;;;12.15;10.07;;;;;;;40.57;11.19;100058.44;5024467;28;20044;-74
2024/03/22 08:10:15;;;;;;;13.13;9.10;;;;;;;41.08;11.36;100048.94;5058228;28;20046;-74
2024/03/22 08:12:43;;;;;;;;;;;;;;;41.46;11.29;100052.06;5057072;28;20050;-74
2024/03/22 08:15:09;;;;;;;12.85;7.40;;;;;;;40.96;11.13;100010.50;5044910;28;20018;-74
2024/03/22 08:17:36;;;;;;;12.18;7.68;;;;;;;41.06;10.82;100037.38;5042451;28;20541;-73
2024/03/22 08:20:02;;;;;;;10.75;7.20;;;;;;;41.45;10.68;100039.47;5025287;28;20640;-74
2024/03/22 08:22:30;;;;;;;12.65;8.15;;;;;;;40.80;10.10;100024.56;5042317;28;20044;-72
2024/03/22 08:24:57;;;;;;;11.35;7.70;;;;;;;40.53;10.72;100015.44;5057512;28;20036;-72
2024/03/22 08:27:25;;;;;;;12.77;8.00;;;;;;;41.23;10.70;100026.91;5059248;28;20044;-73
2024/03/22 08:29:52;;;;;;;9.43;7.35;;;;;;;41.21;10.66;99987.22;5059459;28;20033;-70
2024/03/22 08:32:18;;;;;;;15.40;7.93;;;;;;;41.95;10.83;99990.69;5041223;28;20040;-73
2024/03/22 08:34:46;;;;;;;9.93;7.93;;;;;;;41.59;10.19;100002.09;5048121;28;20037;-74
2024/03/22 08:37:13;;;;;;;12.43;8.23;;;;;;;41.25;10.51;99993.94;5041766;28;20052;-73
2024/03/22 08:39:39;;;;;;;13.20;8.45;;;;;;;41.25;10.86;99977.56;5060799;28;20066;-74
2024/03/22 08:42:05;;;;;;;11.02;8.40;;;;;;;41.35;9.97;99982.59;5056459;28;20055;-72
2024/03/22 08:44:32;;;;;;;14.52;7.55;;;;;;;40.95;10.23;99991.59;5042804;28;20139;-74
2024/03/22 08:46:59;;;;;;;11.57;7.90;;;;;;;41.12;10.54;99980.31;5027495;28;20913;-71
2024/03/22 08:49:27;;;;;;;11.05;7.28;;;;;;;41.60;10.71;99985.50;5011709;28;20044;-74
2024/03/22 08:51:54;;;;;;;10.48;7.88;;;;;;;41.48;10.86;99968.94;5031435;28;20055;-74
2024/03/22 08:54:20;;;;;;;11.50;7.38;;;;;;;41.99;10.45;99991.09;5031687;28;20070;-74
2024/03/22 08:56:46;;;;;;;11.45;7.03;;;;;;;41.97;10.49;99953.06;5053118;28;20079;-74
2024/03/22 08:59:13;;;;;;;9.18;6.45;;;;;;;41.44;9.79;99942.28;5059558;28;20055;-75
2024/03/22 09:01:39;;;;;;;10.57;7.10;;;;;;;40.08;9.60;99964.97;5042785;28;20036;-73
2024/03/22 09:04:05;;;;;;;9.48;6.55;;;;;;;38.82;9.47;99950.31;5040305;28;20152;-74
2024/03/22 09:06:33;;;;;;;9.07;6.80;;;;;;;38.82;10.05;99966.59;5047146;28;20071;-74
2024/03/22 09:09:00;;;;;;;14.27;7.20;;;;;;;38.56;10.37;99935.44;5044383;28;20044;-73
2024/03/22 09:11:27;;;;;;;10.80;6.65;;;;;;;37.74;10.40;99954.50;5041934;28;20041;-70
2024/03/22 09:13:54;;;;;;;11.75;6.97;;;;;;;37.19;10.19;99941.16;5046379;28;20042;-74
2024/03/22 09:16:23;;;;;;;8.63;6.20;;;;;;;36.27;10.08;99917.63;5040856;28;20044;-75
2024/03/22 09:18:50;;;;;;;11.13;7.05;;;;;;;36.81;11.31;99921.34;5043932;28;20433;-74
2024/03/22 09:21:16;;;;;;;8.77;6.43;;;;;;;37.95;10.92;99912.19;5065093;28;20119;-75
2024/03/22 09:23:43;;;;;;;10.80;6.97;;;;;;;37.61;11.16;99938.88;5044416;28;20047;-74
2024/03/22 09:26:09;;;;;;;8.43;6.63;;;;;;;38.62;11.57;99920.25;5060400;28;20075;-73
2024/03/22 09:28:36;;;;;;;12.20;6.80;;;;;;;39.13;11.24;99916.50;5041213;28;20036;-72
2024/03/22 09:31:07;;;;;;;9.35;6.75;;;;;;;39.62;10.82;99931.84;5050584;28;20045;-75
2024/03/22 09:33:34;;;;;;;9.52;6.65;;;;;;;39.69;11.15;99950.13;5049689;28;20028;-74
2024/03/22 09:36:00;;;;;;;10.18;6.90;;;;;;;40.00;11.12;99927.03;5044577;28;20048;-72
2024/03/22 09:38:26;;;;;;;10.98;6.50;;;;;;;39.28;10.90;99911.78;5054230;28;20048;-73
2024/03/22 09:40:54;;;;;;;11.82;7.07;;;;;;;38.76;10.73;99913.03;5050802;28;20127;-74
2024/03/22 09:43:22;;;;;;;12.90;7.28;;;;;;;38.40;10.95;99893.91;5056909;28;20032;-73
2024/03/22 09:45:52;;;;;;;9.20;5.80;;;;;;;38.60;10.86;99890.53;5060042;28;20154;-75
2024/03/22 09:48:20;;;;;;;10.55;6.32;;;;;;;38.99;10.45;99921.81;5067762;28;20040;-75
2024/03/22 09:50:49;;;;;;;11.43;6.30;;;;;;;38.84;10.78;99915.63;5060717;28;20048;-72
2024/03/22 09:53:21;;;;;;;8.35;5.80;;;;;;;38.99;10.54;99926.44;5032925;28;20398;-71
2024/03/22 09:55:51;;;;;;;11.88;5.97;;;;;;;38.33;10.50;99911.97;5062403;28;20047;-75
2024/03/22 09:58:18;;;;;;;13.35;6.80;;;;;;;37.86;10.87;99924.16;5034102;28;20200;-74
2024/03/22 10:00:48;;;;;;;13.52;6.70;;;;;;;38.41;11.21;99902.88;5045705;28;20617;-77
2024/03/22 10:03:21;;;;;;;8.40;5.75;;;;;;;38.94;11.13;99909.84;5030322;28;20490;-74
2024/03/22 10:05:47;;;;;;;12.10;6.77;;;;;;;37.55;10.05;99914.38;5050392;28;20131;-71
2024/03/22 10:08:14;;;;;;;7.82;6.18;;;;;;;36.67;11.21;99887.75;5046544;28;20985;-74
2024/03/22 10:10:42;;;;;;;12.75;6.72;;;;;;;36.19;11.55;99913.94;5030305;28;20460;-73
2024/03/22 10:13:09;;;;;;;10.10;6.55;;;;;;;35.35;11.17;99908.16;5048742;28;20386;-69
2024/03/22 10:15:35;;;;;;;8.57;6.40;;;;;;;35.28;11.90;99908.88;5025857;28;20063;-71
2024/03/22 10:18:02;;;;;;;8.52;6.10;;;;;;;35.97;12.06;99907.47;5026387;28;20037;-71
2024/03/22 10:20:29;;;;;;;11.20;6.10;;;;;;;35.32;11.57;99886.88;5032511;28;20050;-72
2024/03/22 10:23:00;;;;;;;9.15;6.28;;;;;;;33.10;11.29;99921.22;5036955;28;20136;-71
2024/03/22 10:25:27;;;;;;;10.93;6.38;;;;;;;29.67;12.24;99862.06;5043440;28;20044;-76
2024/03/22 10:27:55;;;;;;;9.18;6.55;;;;;;;27.71;12.41;99883.59;5063197;28;20506;-75
2024/03/22 10:30:25;;;;;;;9.15;6.47;;;;;;;25.99;13.57;99837.78;5052424;28;20032;-76
2024/03/22 10:33:02;;;;;;;10.60;6.60;;;;;;;24.33;14.23;99822.50;5050244;28;20806;-79
2024/03/22 10:35:39;;;;;;;9.75;7.03;;;;;;;23.51;14.62;99873.72;5053927;28;20055;-79
2024/03/22 10:38:07;;;;;;;14.25;6.38;;;;;;;22.02;15.75;99800.16;5034281;28;20057;-74
2024/03/22 10:40:35;;;;;;;10.55;5.70;;;;;;;21.20;16.00;99865.44;5043904;28;20136;-75
2024/03/22 10:43:02;;;;;;;10.70;6.22;;;;;;;20.20;16.26;99877.38;5041853;28;20090;-73
2024/03/22 10:45:29;;;;;;;9.85;6.78;;;;;;;19.37;17.04;99863.53;5039796;28;20045;-76
2024/03/22 10:47:56;;;;;;;12.15;6.95;;;;;;;18.93;17.62;99861.91;5052329;28;20533;-74
2024/03/22 10:50:26;;;;;;;11.98;6.93;;;;;;;18.61;18.07;99903.63;5053255;28;20048;-73
2024/03/22 10:52:59;;;;;;;12.45;7.35;;;;;;;17.80;18.43;99816.34;5036516;28;20148;-73
2024/03/22 10:55:38;;;;;;;13.50;6.22;;;;;;;17.85;18.57;99901.25;5055965;28;20504;-75
2024/03/22 10:58:05;;;;;;;9.02;5.78;;;;;;;17.02;19.00;99861.25;5052852;28;20109;-79
2024/03/22 11:00:36;;;;;;;9.30;6.10;;;;;;;16.27;19.67;99875.94;5053843;28;20124;-76
2024/03/22 11:03:07;;;;;;;12.07;6.32;;;;;;;15.90;20.25;99898.91;5053750;28;20524;-75
2024/03/22 11:05:50;;;;;;;11.45;5.93;;;;;;;15.10;21.13;99830.31;5056329;28;20071;-75
2024/03/22 11:08:43;;;;;;;11.73;5.72;;;;;;;14.86;21.25;99832.69;5031251;28;20040;-76
2024/03/22 11:11:13;;;;;;;9.25;6.07;;;;;;;14.56;21.89;99854.34;5051967;28;20036;-72
2024/03/22 11:13:39;;;;;;;11.48;6.20;;;;;;;14.22;22.05;99838.59;5037401;28;21133;-76
2024/03/22 11:16:15;;;;;;;11.07;5.63;;;;;;;14.03;22.58;99844.22;5031107;28;20036;-73
2024/03/22 11:18:42;;;;;;;10.80;6.13;;;;;;;14.04;22.69;99887.81;5025845;28;20044;-73